Mansfield, Washington
Current Conditions -  °F | °C
As of 12:53 PM on Saturday 20 Dec 2014 (Local Time) from KEPH Reporting Station
Light Rain Light Rain  
Wind Chill: 41°   Ceiling: 500
Heat Index: 41°   Visibility: 10mi
Dew Point: 40°   Wind: 3mph
Humidity: 96%   Direction: 360°N
Pressure: 29.69"   Gusts: NA
Location:  47.81°N, 119.64°W
Report Text: KEPH 202053Z AUTO 36003KT 10SM -RA OVC005 05/04 A2969 RMK AO2 RAB1956E07B49 SLP064 P0000 60002 T00500044 58025
Loading
Personal Weather Stations






























Interactive Weather Map New forecast layout! Learn more

10-Day Weather Forecast

Advertisements
Track Severe Weather on mobile